Time,TemperatureF,DewpointF,PressureIn,WindDirection,WindDirectionDegrees,WindSpeedMPH,WindSpeedGustMPH,Humidity,HourlyPrecipIn,Conditions,Clouds,dailyrainin,SoftwareType,DateUTC
2013-04-09 00:00:00,60.5,58.8,29.93,North,352,0.0,0.0,94,0.03,,,0.00,VWS V14.01,2013-04-09 04:00:00,
2013-04-09 00:05:00,60.5,58.8,29.93,North,352,0.0,0.0,94,0.03,,,0.00,VWS V14.01,2013-04-09 04:05:00,
2013-04-09 00:10:00,60.5,59.1,29.93,North,352,0.0,1.0,95,0.03,,,0.00,VWS V14.01,2013-04-09 04:10:00,
2013-04-09 00:16:00,60.5,59.1,29.93,North,352,1.0,1.0,95,0.00,,,0.00,VWS V14.01,2013-04-09 04:16:00,
2013-04-09 00:21:00,60.5,59.1,29.93,North,355,0.0,1.0,95,0.03,,,0.00,VWS V14.01,2013-04-09 04:21:00,
2013-04-09 00:27:00,60.5,59.1,29.93,North,355,0.0,0.0,95,0.00,,,0.00,VWS V14.01,2013-04-09 04:27:00,
2013-04-09 00:30:00,60.5,59.1,29.93,North,355,0.0,0.0,95,0.03,,,0.00,VWS V14.01,2013-04-09 04:30:00,
2013-04-09 00:35:00,60.5,59.0,29.94,NE,36,0.0,0.0,95,0.00,,,0.00,weatherlink.com 1.10,2013-04-09 04:35:00,
2013-04-09 00:40:00,60.5,59.1,29.93,NNE,25,0.0,3.0,95,0.00,,,0.00,VWS V14.01,2013-04-09 04:40:00,
2013-04-09 00:46:00,60.4,59.0,29.94,ENE,66,1.0,1.0,95,0.00,,,0.00,VWS V14.01,2013-04-09 04:46:00,
2013-04-09 00:51:00,60.1,58.7,29.94,ENE,65,0.0,0.0,95,0.00,,,0.00,VWS V14.01,2013-04-09 04:51:00,
2013-04-09 00:56:00,60.0,58.6,29.94,East,81,0.0,1.0,95,0.00,,,0.00,VWS V14.01,2013-04-09 04:56:00,
2013-04-09 01:00:00,60.0,58.6,29.94,East,81,0.0,1.0,95,0.00,,,0.00,VWS V14.01,2013-04-09 05:00:00,
2013-04-09 01:02:00,60.0,58.6,29.94,East,80,0.0,0.0,95,0.00,,,0.00,VWS V14.01,2013-04-09 05:02:00,
2013-04-09 01:07:00,59.8,58.4,29.94,East,80,0.0,0.0,95,0.00,,,0.00,VWS V14.01,2013-04-09 05:07:00,
2013-04-09 01:12:00,59.7,58.3,29.94,East,79,0.0,1.0,95,0.00,,,0.00,VWS V14.01,2013-04-09 05:12:00,
2013-04-09 01:17:00,59.6,58.2,29.95,East,79,0.0,1.0,95,0.00,,,0.00,VWS V14.01,2013-04-09 05:17:00,
2013-04-09 01:22:00,59.5,58.1,29.95,East,79,0.0,1.0,95,0.00,,,0.00,VWS V14.01,2013-04-09 05:22:00,
2013-04-09 01:27:00,59.5,58.1,29.95,East,79,0.0,1.0,95,0.00,,,0.00,VWS V14.01,2013-04-09 05:27:00,
2013-04-09 01:30:00,59.5,58.1,29.95,East,79,0.0,1.0,95,0.00,,,0.00,VWS V14.01,2013-04-09 05:30:00,
2013-04-09 01:33:00,59.5,58.1,29.95,East,79,0.0,0.0,95,0.00,,,0.00,VWS V14.01,2013-04-09 05:33:00,
2013-04-09 01:51:00,59.5,58.0,29.96,East,79,0.0,0.0,95,0.00,,,0.00,weatherlink.com 1.10,2013-04-09 05:51:00,
2013-04-09 01:57:00,58.7,57.0,29.96,ENE,78,0.0,4.0,95,0.00,,,0.00,weatherlink.com 1.10,2013-04-09 05:57:00,
2013-04-09 02:00:00,58.7,57.3,29.96,ENE,78,0.0,0.0,95,0.00,,,0.00,VWS V14.01,2013-04-09 06:00:00,
2013-04-09 02:02:00,58.3,56.6,29.96,ENE,77,0.0,0.0,94,0.00,,,0.00,VWS V14.01,2013-04-09 06:02:00,
2013-04-09 02:07:00,58.2,56.5,29.95,ENE,77,0.0,0.0,94,0.00,,,0.00,VWS V14.01,2013-04-09 06:07:00,
2013-04-09 02:12:00,58.2,56.8,29.95,SE,132,0.0,1.0,95,0.00,,,0.00,VWS V14.01,2013-04-09 06:12:00,
2013-04-09 02:17:00,58.2,56.8,29.95,SE,132,0.0,1.0,95,0.00,,,0.00,VWS V14.01,2013-04-09 06:17:00,
2013-04-09 02:22:00,58.1,56.4,29.95,NNE,14,0.0,1.0,94,0.00,,,0.00,VWS V14.01,2013-04-09 06:22:00,
2013-04-09 02:30:00,58.0,56.3,29.95,NNE,27,0.0,0.0,94,0.00,,,0.00,VWS V14.01,2013-04-09 06:30:00,
2013-04-09 02:31:00,57.7,56.0,29.95,NE,38,2.0,5.0,94,0.00,,,0.00,weatherlink.com 1.10,2013-04-09 06:31:00,
2013-04-09 02:36:00,56.9,54.9,29.95,ENE,75,0.0,4.0,93,0.00,,,0.00,VWS V14.01,2013-04-09 06:36:00,
2013-04-09 02:41:00,56.7,54.7,29.95,East,80,0.0,4.0,93,0.00,,,0.00,VWS V14.01,2013-04-09 06:41:00,
2013-04-09 02:48:00,56.5,54.5,29.95,NE,55,0.0,0.0,93,0.00,,,0.00,VWS V14.01,2013-04-09 06:48:00,
2013-04-09 02:53:00,56.2,54.2,29.94,ENE,75,0.0,1.0,93,0.00,,,0.00,VWS V14.01,2013-04-09 06:53:00,
2013-04-09 02:58:00,56.0,54.0,29.94,ENE,75,0.0,1.0,93,0.00,,,0.00,VWS V14.01,2013-04-09 06:58:00,
2013-04-09 03:00:00,56.1,54.1,29.94,ENE,75,0.0,1.0,93,0.00,,,0.00,VWS V14.01,2013-04-09 07:00:00,
2013-04-09 03:07:00,55.9,53.9,29.94,ENE,72,0.0,0.0,93,0.00,,,0.00,VWS V14.01,2013-04-09 07:07:00,
2013-04-09 03:12:00,55.7,53.7,29.94,ENE,72,0.0,0.0,93,0.00,,,0.00,VWS V14.01,2013-04-09 07:12:00,
2013-04-09 03:19:00,55.6,54.0,29.94,ENE,72,0.0,1.0,93,0.00,,,0.00,weatherlink.com 1.10,2013-04-09 07:19:00,
2013-04-09 03:27:00,55.5,53.8,29.94,ENE,72,0.0,0.0,94,0.00,,,0.00,VWS V14.01,2013-04-09 07:27:00,
2013-04-09 03:30:00,55.5,53.8,29.94,ENE,72,0.0,0.0,94,0.00,,,0.00,VWS V14.01,2013-04-09 07:30:00,
2013-04-09 03:33:00,55.4,53.7,29.94,ENE,72,0.0,0.0,94,0.00,,,0.00,VWS V14.01,2013-04-09 07:33:00,
2013-04-09 03:38:00,55.4,53.7,29.93,East,85,0.0,1.0,94,0.00,,,0.00,VWS V14.01,2013-04-09 07:38:00,
2013-04-09 03:43:00,55.3,53.6,29.93,East,84,0.0,0.0,94,0.00,,,0.00,VWS V14.01,2013-04-09 07:43:00,
2013-04-09 03:48:00,55.2,53.5,29.93,East,85,0.0,0.0,94,0.00,,,0.00,VWS V14.01,2013-04-09 07:48:00,
2013-04-09 03:53:00,55.1,53.4,29.94,East,79,0.0,1.0,94,0.00,,,0.00,VWS V14.01,2013-04-09 07:53:00,
2013-04-09 03:57:00,55.0,53.3,29.94,East,79,0.0,0.0,94,0.00,,,0.00,VWS V14.01,2013-04-09 07:57:00,
2013-04-09 04:00:00,55.0,53.3,29.94,East,79,0.0,1.0,94,0.00,,,0.00,VWS V14.01,2013-04-09 08:00:00,
2013-04-09 04:02:00,55.0,53.6,29.93,East,79,1.0,2.0,95,0.00,,,0.00,VWS V14.01,2013-04-09 08:02:00,
2013-04-09 04:07:00,55.1,53.7,29.93,East,79,0.0,2.0,95,0.00,,,0.00,VWS V14.01,2013-04-09 08:07:00,
2013-04-09 04:12:00,55.1,53.7,29.94,ENE,63,2.0,2.0,95,0.00,,,0.00,VWS V14.01,2013-04-09 08:12:00,
2013-04-09 04:17:00,55.1,53.7,29.94,ENE,70,1.0,2.0,95,0.00,,,0.00,VWS V14.01,2013-04-09 08:17:00,
2013-04-09 04:26:00,54.9,53.0,29.93,ENE,72,2.0,3.0,94,0.00,,,0.00,weatherlink.com 1.10,2013-04-09 08:26:00,
2013-04-09 04:30:00,54.9,53.2,29.93,ENE,72,0.0,3.0,94,0.00,,,0.00,VWS V14.01,2013-04-09 08:30:00,
2013-04-09 04:31:00,54.9,53.2,29.93,ENE,60,1.0,2.0,94,0.00,,,0.00,VWS V14.01,2013-04-09 08:31:00,
2013-04-09 04:40:00,54.7,53.0,29.94,NE,51,0.0,1.0,94,0.00,,,0.00,VWS V14.01,2013-04-09 08:40:00,
2013-04-09 04:45:00,54.5,52.8,29.94,ENE,72,1.0,2.0,94,0.00,,,0.00,VWS V14.01,2013-04-09 08:45:00,
2013-04-09 04:50:00,54.3,52.6,29.94,ENE,75,2.0,4.0,94,0.00,,,0.00,VWS V14.01,2013-04-09 08:50:00,
2013-04-09 04:55:00,54.2,52.2,29.94,ENE,68,1.0,4.0,93,0.00,,,0.00,VWS V14.01,2013-04-09 08:55:00,
2013-04-09 05:00:00,54.0,52.0,29.94,ENE,63,0.0,4.0,93,0.00,,,0.00,weatherlink.com 1.10,2013-04-09 09:00:00,
2013-04-09 05:05:00,53.9,51.9,29.94,ENE,72,0.0,0.0,93,0.00,,,0.00,VWS V14.01,2013-04-09 09:05:00,
2013-04-09 05:11:00,53.8,51.8,29.94,ENE,72,0.0,0.0,93,0.00,,,0.00,VWS V14.01,2013-04-09 09:11:00,
2013-04-09 05:17:00,53.8,52.0,29.95,East,80,0.0,1.0,93,0.00,,,0.00,weatherlink.com 1.10,2013-04-09 09:17:00,
2013-04-09 05:22:00,53.8,51.8,29.95,ENE,66,1.0,2.0,93,0.00,,,0.00,VWS V14.01,2013-04-09 09:22:00,
2013-04-09 05:27:00,53.9,51.9,29.94,ENE,73,0.0,3.0,93,0.00,,,0.00,VWS V14.01,2013-04-09 09:27:00,
2013-04-09 05:30:00,53.9,51.9,29.94,ENE,73,0.0,3.0,93,0.00,,,0.00,VWS V14.01,2013-04-09 09:30:00,
2013-04-09 05:32:00,54.0,52.0,29.94,East,89,0.0,1.0,93,0.00,,,0.00,VWS V14.01,2013-04-09 09:32:00,
2013-04-09 05:37:00,54.1,52.1,29.94,ENE,78,2.0,2.0,93,0.00,,,0.00,VWS V14.01,2013-04-09 09:37:00,
2013-04-09 05:42:00,54.1,51.8,29.94,East,93,1.0,3.0,92,0.00,,,0.00,VWS V14.01,2013-04-09 09:42:00,
2013-04-09 05:47:00,54.1,51.8,29.94,ENE,60,0.0,3.0,92,0.00,,,0.00,VWS V14.01,2013-04-09 09:47:00,
2013-04-09 05:52:00,54.2,51.9,29.94,East,81,2.0,4.0,92,0.00,,,0.00,VWS V14.01,2013-04-09 09:52:00,
2013-04-09 05:57:00,54.3,51.7,29.93,East,85,0.0,0.0,91,0.00,,,0.00,VWS V14.01,2013-04-09 09:57:00,
2013-04-09 06:00:00,54.3,52.0,29.94,East,84,0.0,2.0,92,0.00,,,0.00,VWS V14.01,2013-04-09 10:00:00,
2013-04-09 06:02:00,54.2,51.6,29.93,ESE,117,0.0,1.0,91,0.00,,,0.00,VWS V14.01,2013-04-09 10:02:00,
2013-04-09 06:07:00,54.3,51.7,29.94,East,80,1.0,2.0,91,0.00,,,0.00,VWS V14.01,2013-04-09 10:07:00,
2013-04-09 06:12:00,54.2,51.6,29.94,ESE,115,0.0,0.0,91,0.00,,,0.00,VWS V14.01,2013-04-09 10:12:00,
2013-04-09 06:17:00,54.2,51.6,29.94,ENE,75,1.0,1.0,91,0.00,,,0.00,VWS V14.01,2013-04-09 10:17:00,
2013-04-09 06:24:00,54.2,51.6,29.94,East,86,0.0,0.0,91,0.00,,,0.00,VWS V14.01,2013-04-09 10:24:00,
2013-04-09 06:29:00,54.4,51.8,29.94,East,80,0.0,1.0,91,0.00,,,0.00,VWS V14.01,2013-04-09 10:29:00,
2013-04-09 06:30:00,54.3,51.7,29.94,SE,136,0.0,2.0,91,0.00,,,0.00,VWS V14.01,2013-04-09 10:30:00,
2013-04-09 06:34:00,54.2,51.6,29.94,ESE,102,0.0,2.0,91,0.00,,,0.00,VWS V14.01,2013-04-09 10:34:00,
2013-04-09 06:39:00,54.1,51.5,29.94,ENE,72,0.0,2.0,91,0.00,,,0.00,VWS V14.01,2013-04-09 10:39:00,
2013-04-09 06:44:00,54.1,51.5,29.95,East,91,0.0,3.0,91,0.00,,,0.00,VWS V14.01,2013-04-09 10:44:00,
2013-04-09 06:49:00,54.1,51.5,29.95,East,93,0.0,3.0,91,0.00,,,0.00,VWS V14.01,2013-04-09 10:49:00,
2013-04-09 06:57:00,54.0,52.0,29.95,SE,132,0.0,1.0,91,0.00,,,0.00,weatherlink.com 1.10,2013-04-09 10:57:00,
2013-04-09 07:00:00,54.0,51.4,29.95,SE,133,0.0,0.0,91,0.00,,,0.00,VWS V14.01,2013-04-09 11:00:00,
2013-04-09 07:02:00,53.9,51.3,29.94,East,82,0.0,2.0,91,0.00,,,0.00,VWS V14.01,2013-04-09 11:02:00,
2013-04-09 07:07:00,53.9,51.3,29.94,East,91,0.0,2.0,91,0.00,,,0.00,VWS V14.01,2013-04-09 11:07:00,
2013-04-09 07:12:00,53.9,51.3,29.94,SE,128,1.0,2.0,91,0.00,,,0.00,VWS V14.01,2013-04-09 11:12:00,
2013-04-09 07:17:00,53.9,51.3,29.94,East,82,0.0,1.0,91,0.00,,,0.00,VWS V14.01,2013-04-09 11:17:00,
2013-04-09 07:22:00,53.9,51.3,29.94,East,94,0.0,0.0,91,0.00,,,0.00,VWS V14.01,2013-04-09 11:22:00,
2013-04-09 07:27:00,53.8,51.2,29.94,East,89,0.0,1.0,91,0.00,,,0.00,VWS V14.01,2013-04-09 11:27:00,
2013-04-09 07:30:00,53.8,51.2,29.94,East,89,1.0,1.0,91,0.00,,,0.00,VWS V14.01,2013-04-09 11:30:00,
2013-04-09 07:32:00,53.8,51.2,29.95,ENE,72,0.0,1.0,91,0.00,,,0.00,VWS V14.01,2013-04-09 11:32:00,
2013-04-09 07:40:00,53.9,51.3,29.95,East,98,0.0,0.0,91,0.00,,,0.00,VWS V14.01,2013-04-09 11:40:00,
2013-04-09 07:45:00,54.0,51.4,29.94,East,91,0.0,2.0,91,0.00,,,0.00,VWS V14.01,2013-04-09 11:45:00,
2013-04-09 07:50:00,54.1,51.5,29.95,ESE,121,0.0,2.0,91,0.00,,,0.00,VWS V14.01,2013-04-09 11:50:00,
2013-04-09 07:55:00,54.3,51.7,29.96,East,98,0.0,3.0,91,0.00,,,0.00,VWS V14.01,2013-04-09 11:55:00,
2013-04-09 08:00:00,54.4,51.8,29.96,East,100,0.0,1.0,91,0.00,,,0.00,VWS V14.01,2013-04-09 12:00:00,
2013-04-09 08:05:00,54.5,51.6,29.96,East,91,1.0,3.0,90,0.00,,,0.00,VWS V14.01,2013-04-09 12:05:00,
2013-04-09 08:10:00,54.6,51.7,29.96,East,85,0.0,0.0,90,0.00,,,0.00,VWS V14.01,2013-04-09 12:10:00,
2013-04-09 08:19:00,54.7,51.8,29.95,East,89,0.0,0.0,90,0.00,,,0.00,VWS V14.01,2013-04-09 12:19:00,
2013-04-09 08:24:00,54.9,52.0,29.95,NE,56,2.0,3.0,90,0.00,,,0.00,VWS V14.01,2013-04-09 12:24:00,
2013-04-09 08:30:00,55.0,52.1,29.94,ENE,72,1.0,5.0,90,0.00,,,0.00,VWS V14.01,2013-04-09 12:30:00,
2013-04-09 08:31:00,55.1,52.2,29.95,East,100,1.0,2.0,90,0.00,,,0.00,VWS V14.01,2013-04-09 12:31:00,
2013-04-09 08:37:00,55.3,52.4,29.95,SE,136,1.0,1.0,90,0.00,,,0.00,VWS V14.01,2013-04-09 12:37:00,
2013-04-09 08:42:00,55.6,52.7,29.95,ESE,110,0.0,4.0,90,0.00,,,0.00,VWS V14.01,2013-04-09 12:42:00,
2013-04-09 08:47:00,55.8,52.9,29.95,SE,142,1.0,4.0,90,0.00,,,0.00,VWS V14.01,2013-04-09 12:47:00,
2013-04-09 08:52:00,56.2,53.0,29.95,SE,145,2.0,5.0,89,0.00,,,0.00,VWS V14.01,2013-04-09 12:52:00,
2013-04-09 09:00:00,56.4,53.2,29.95,SE,143,1.0,1.0,89,0.00,,,0.00,VWS V14.01,2013-04-09 13:00:00,
2013-04-09 09:06:00,56.8,53.6,29.95,ESE,121,0.0,0.0,89,0.00,,,0.00,VWS V14.01,2013-04-09 13:06:00,
2013-04-09 09:11:00,57.6,54.1,29.94,ESE,121,4.0,4.0,88,0.00,,,0.00,VWS V14.01,2013-04-09 13:11:00,
2013-04-09 09:16:00,58.0,54.2,29.94,East,86,0.0,6.0,87,0.00,,,0.00,VWS V14.01,2013-04-09 13:16:00,
2013-04-09 09:23:00,58.3,54.5,29.94,ESE,120,5.0,5.0,87,0.00,,,0.00,VWS V14.01,2013-04-09 13:23:00,
2013-04-09 09:28:00,59.1,54.6,29.94,SE,128,4.0,7.0,85,0.00,,,0.00,VWS V14.01,2013-04-09 13:28:00,
2013-04-09 09:30:00,58.9,54.4,29.94,SE,134,4.0,9.0,85,0.00,,,0.00,VWS V14.01,2013-04-09 13:30:00,
2013-04-09 09:33:00,59.5,54.7,29.93,South,177,3.0,6.0,84,0.00,,,0.00,VWS V14.01,2013-04-09 13:33:00,
2013-04-09 09:38:00,59.7,54.9,29.93,SE,141,4.0,8.0,84,0.00,,,0.00,VWS V14.01,2013-04-09 13:38:00,
2013-04-09 09:43:00,60.0,54.8,29.92,South,170,3.0,8.0,83,0.00,,,0.00,VWS V14.01,2013-04-09 13:43:00,
2013-04-09 09:48:00,60.2,55.0,29.92,ESE,120,3.0,8.0,83,0.00,,,0.00,VWS V14.01,2013-04-09 13:48:00,
2013-04-09 09:54:00,60.3,54.8,29.92,ESE,108,5.0,5.0,82,0.00,,,0.00,VWS V14.01,2013-04-09 13:54:00,
2013-04-09 09:59:00,60.7,55.2,29.92,SSE,148,3.0,6.0,82,0.00,,,0.00,VWS V14.01,2013-04-09 13:59:00,
2013-04-09 10:00:00,60.6,55.1,29.92,ESE,114,4.0,9.0,82,0.00,,,0.00,VWS V14.01,2013-04-09 14:00:00,
2013-04-09 10:04:00,61.0,55.1,29.92,ESE,123,8.0,8.0,81,0.00,,,0.00,VWS V14.01,2013-04-09 14:04:00,
2013-04-09 10:09:00,61.2,55.3,29.93,ESE,120,5.0,8.0,81,0.00,,,0.00,VWS V14.01,2013-04-09 14:09:00,
2013-04-09 10:14:00,61.5,55.6,29.92,SE,139,2.0,8.0,81,0.00,,,0.00,VWS V14.01,2013-04-09 14:14:00,
2013-04-09 10:19:00,61.8,55.6,29.92,South,191,2.0,8.0,80,0.00,,,0.00,VWS V14.01,2013-04-09 14:19:00,
2013-04-09 10:24:00,62.2,55.6,29.93,SE,128,3.0,8.0,79,0.00,,,0.00,VWS V14.01,2013-04-09 14:24:00,
2013-04-09 10:30:00,62.4,55.8,29.93,South,184,6.0,8.0,79,0.00,,,0.00,VWS V14.01,2013-04-09 14:30:00,
2013-04-09 10:32:00,62.7,56.0,29.93,SE,124,3.0,8.0,79,0.00,,,0.00,weatherlink.com 1.10,2013-04-09 14:32:00,
2013-04-09 10:37:00,63.5,56.2,29.92,SSE,158,7.0,7.0,77,0.00,,,0.00,VWS V14.01,2013-04-09 14:37:00,
2013-04-09 10:47:00,64.6,57.0,29.91,SSE,166,4.0,9.0,75,0.00,,,0.00,weatherlink.com 1.10,2013-04-09 14:47:00,
2013-04-09 10:52:00,65.3,56.8,29.91,ESE,103,3.0,6.0,74,0.00,,,0.00,VWS V14.01,2013-04-09 14:52:00,
2013-04-09 10:58:00,66.2,57.3,29.91,SE,146,4.0,4.0,73,0.00,,,0.00,VWS V14.01,2013-04-09 14:58:00,
2013-04-09 11:04:00,66.6,57.3,29.92,SSW,204,2.0,10.0,72,0.00,,,0.00,VWS V14.01,2013-04-09 15:04:00,
2013-04-09 11:09:00,67.2,57.5,29.91,SSW,193,3.0,10.0,71,0.00,,,0.00,VWS V14.01,2013-04-09 15:09:00,
2013-04-09 11:14:00,68.0,57.9,29.91,South,170,5.0,5.0,70,0.00,,,0.00,VWS V14.01,2013-04-09 15:14:00,
2013-04-09 11:19:00,69.0,58.8,29.91,SE,136,4.0,7.0,70,0.00,,,0.00,VWS V14.01,2013-04-09 15:19:00,
2013-04-09 11:24:00,70.0,59.0,29.91,SSE,152,2.0,5.0,68,0.00,,,0.00,VWS V14.01,2013-04-09 15:24:00,
2013-04-09 11:29:00,71.2,59.3,29.91,SW,225,6.0,14.0,66,0.00,,,0.00,VWS V14.01,2013-04-09 15:29:00,
2013-04-09 11:30:00,70.6,59.1,29.91,SW,226,7.0,13.0,67,0.00,,,0.00,VWS V14.01,2013-04-09 15:30:00,
2013-04-09 11:34:00,72.2,59.8,29.90,SSE,150,5.0,14.0,65,0.00,,,0.00,VWS V14.01,2013-04-09 15:34:00,
2013-04-09 11:39:00,72.5,59.6,29.90,SSE,155,4.0,4.0,64,0.00,,,0.00,VWS V14.01,2013-04-09 15:39:00,
2013-04-09 11:46:00,74.1,60.7,29.90,SSE,153,9.0,9.0,63,0.00,,,0.00,VWS V14.01,2013-04-09 15:46:00,
2013-04-09 11:52:00,75.0,62.0,29.89,SSW,199,4.0,15.0,64,0.00,,,0.00,VWS V14.01,2013-04-09 15:52:00,
2013-04-09 11:57:00,75.4,61.0,29.89,SSW,210,12.0,15.0,61,0.00,,,0.00,VWS V14.01,2013-04-09 15:57:00,
2013-04-09 12:00:00,75.4,60.6,29.89,SSW,205,7.0,15.0,60,0.00,,,0.00,VWS V14.01,2013-04-09 16:00:00,
2013-04-09 12:02:00,75.4,61.0,29.89,SSW,194,9.0,14.0,61,0.00,,,0.00,VWS V14.01,2013-04-09 16:02:00,
2013-04-09 12:10:00,75.6,61.0,29.89,WSW,238,4.0,15.0,60,0.00,,,0.00,weatherlink.com 1.10,2013-04-09 16:10:00,
2013-04-09 12:15:00,76.3,60.9,29.89,South,176,10.0,15.0,59,0.00,,,0.00,VWS V14.01,2013-04-09 16:15:00,
2013-04-09 12:20:00,76.7,61.3,29.88,SSE,160,8.0,17.0,59,0.00,,,0.00,VWS V14.01,2013-04-09 16:20:00,
2013-04-09 12:25:00,76.9,61.0,29.87,SW,214,7.0,17.0,58,0.00,,,0.00,VWS V14.01,2013-04-09 16:25:00,
2013-04-09 12:30:00,77.0,61.1,29.87,South,188,10.0,17.0,58,0.00,,,0.00,VWS V14.01,2013-04-09 16:30:00,
2013-04-09 12:32:00,77.1,61.2,29.87,SW,217,10.0,10.0,58,0.00,,,0.00,VWS V14.01,2013-04-09 16:32:00,
2013-04-09 12:37:00,77.5,61.1,29.86,SE,143,4.0,4.0,57,0.00,,,0.00,VWS V14.01,2013-04-09 16:37:00,
2013-04-09 12:42:00,77.9,61.5,29.86,SSE,158,8.0,10.0,57,0.00,,,0.00,VWS V14.01,2013-04-09 16:42:00,
2013-04-09 12:47:00,78.1,60.6,29.86,South,184,14.0,19.0,55,0.00,,,0.00,VWS V14.01,2013-04-09 16:47:00,
2013-04-09 12:52:00,78.0,60.5,29.86,SW,218,8.0,19.0,55,0.00,,,0.00,VWS V14.01,2013-04-09 16:52:00,
2013-04-09 12:57:00,77.8,60.9,29.86,South,188,12.0,13.0,56,0.00,,,0.00,VWS V14.01,2013-04-09 16:57:00,
2013-04-09 13:00:00,77.8,60.4,29.86,WNW,300,7.0,19.0,55,0.00,,,0.00,VWS V14.01,2013-04-09 17:00:00,
2013-04-09 13:02:00,77.9,61.5,29.86,South,187,8.0,14.0,57,0.00,,,0.00,VWS V14.01,2013-04-09 17:02:00,
2013-04-09 13:08:00,77.8,61.4,29.85,SSE,167,8.0,8.0,57,0.00,,,0.00,VWS V14.01,2013-04-09 17:08:00,
2013-04-09 13:13:00,77.4,61.5,29.85,SW,232,6.0,15.0,58,0.00,,,0.00,VWS V14.01,2013-04-09 17:13:00,
2013-04-09 13:18:00,77.3,61.4,29.85,South,184,12.0,21.0,58,0.00,,,0.00,VWS V14.01,2013-04-09 17:18:00,
2013-04-09 13:23:00,77.4,61.5,29.85,South,179,7.0,7.0,58,0.00,,,0.00,VWS V14.01,2013-04-09 17:23:00,
2013-04-09 13:30:00,78.2,62.2,29.85,West,269,3.0,12.0,58,0.00,,,0.00,VWS V14.01,2013-04-09 17:30:00,
2013-04-09 13:32:00,78.4,61.9,29.84,South,190,5.0,10.0,57,0.00,,,0.00,VWS V14.01,2013-04-09 17:32:00,
2013-04-09 13:37:00,78.5,61.0,29.84,South,184,7.0,14.0,55,0.00,,,0.00,VWS V14.01,2013-04-09 17:37:00,
2013-04-09 13:45:00,78.0,61.0,29.84,South,176,7.0,7.0,56,0.00,,,0.00,VWS V14.01,2013-04-09 17:45:00,
2013-04-09 13:50:00,77.6,60.2,29.84,SSW,201,20.0,20.0,55,0.00,,,0.00,VWS V14.01,2013-04-09 17:50:00,
2013-04-09 13:57:00,77.4,60.5,29.84,SSW,200,5.0,5.0,56,0.00,,,0.00,VWS V14.01,2013-04-09 17:57:00,
2013-04-09 14:00:00,77.4,60.5,29.84,SSW,200,5.0,5.0,56,0.00,,,0.00,VWS V14.01,2013-04-09 18:00:00,
2013-04-09 14:02:00,77.5,60.6,29.83,SW,219,10.0,26.0,56,0.00,,,0.00,VWS V14.01,2013-04-09 18:02:00,
2013-04-09 14:07:00,78.0,60.5,29.84,SSE,159,2.0,26.0,55,0.00,,,0.00,VWS V14.01,2013-04-09 18:07:00,
2013-04-09 14:12:00,78.3,60.8,29.83,SSW,203,6.0,26.0,55,0.00,,,0.00,VWS V14.01,2013-04-09 18:12:00,
2013-04-09 14:17:00,78.6,60.1,29.83,SSE,167,3.0,14.0,53,0.00,,,0.00,VWS V14.01,2013-04-09 18:17:00,
2013-04-09 14:25:00,79.0,61.0,29.83,South,179,22.0,22.0,54,0.00,,,0.00,VWS V14.01,2013-04-09 18:25:00,
2013-04-09 14:30:00,78.8,60.8,29.83,WSW,247,8.0,22.0,54,0.00,,,0.00,VWS V14.01,2013-04-09 18:30:00,
2013-04-09 14:32:00,78.9,59.8,29.83,South,181,12.0,12.0,52,0.00,,,0.00,VWS V14.01,2013-04-09 18:32:00,
2013-04-09 14:37:00,78.9,59.8,29.82,WSW,238,5.0,7.0,52,0.00,,,0.00,VWS V14.01,2013-04-09 18:37:00,
2013-04-09 14:42:00,79.1,59.4,29.82,SW,225,10.0,19.0,51,0.00,,,0.00,VWS V14.01,2013-04-09 18:42:00,
2013-04-09 14:47:00,78.8,59.2,29.82,WSW,240,13.0,23.0,51,0.00,,,0.00,VWS V14.01,2013-04-09 18:47:00,
2013-04-09 14:55:00,78.9,59.0,29.82,West,265,6.0,24.0,51,0.00,,,0.00,weatherlink.com 1.10,2013-04-09 18:55:00,
2013-04-09 15:00:00,79.1,58.9,29.82,SE,133,4.0,22.0,50,0.00,,,0.00,VWS V14.01,2013-04-09 19:00:00,
2013-04-09 15:05:00,79.0,58.8,29.82,WSW,243,10.0,22.0,50,0.00,,,0.00,VWS V14.01,2013-04-09 19:05:00,
2013-04-09 15:11:00,79.3,60.0,29.82,West,276,13.0,25.0,51,0.00,,,0.00,weatherlink.com 1.10,2013-04-09 19:11:00,
2013-04-09 15:16:00,79.6,59.3,29.82,SW,214,5.0,20.0,50,0.00,,,0.00,VWS V14.01,2013-04-09 19:16:00,
2013-04-09 15:21:00,80.0,59.1,29.83,SSW,195,8.0,20.0,49,0.00,,,0.00,VWS V14.01,2013-04-09 19:21:00,
2013-04-09 15:26:00,79.5,59.2,29.83,SE,133,7.0,20.0,50,0.00,,,0.00,VWS V14.01,2013-04-09 19:26:00,
2013-04-09 15:30:00,79.4,59.2,29.83,SSW,212,10.0,20.0,50,0.00,,,0.00,VWS V14.01,2013-04-09 19:30:00,
2013-04-09 15:31:00,79.2,59.5,29.83,SSW,195,4.0,14.0,51,0.00,,,0.00,VWS V14.01,2013-04-09 19:31:00,
2013-04-09 15:36:00,79.3,59.6,29.83,WSW,242,5.0,22.0,51,0.00,,,0.00,VWS V14.01,2013-04-09 19:36:00,
2013-04-09 15:41:00,79.3,59.6,29.83,SSE,165,10.0,22.0,51,0.00,,,0.00,VWS V14.01,2013-04-09 19:41:00,
2013-04-09 15:46:00,79.4,59.2,29.84,South,181,10.0,22.0,50,0.00,,,0.00,VWS V14.01,2013-04-09 19:46:00,
2013-04-09 15:51:00,79.7,59.4,29.83,North,352,2.0,22.0,50,0.00,,,0.00,VWS V14.01,2013-04-09 19:51:00,
2013-04-09 15:56:00,79.5,59.2,29.83,South,172,6.0,22.0,50,0.00,,,0.00,VWS V14.01,2013-04-09 19:56:00,
2013-04-09 16:00:00,79.5,59.2,29.83,SSE,155,10.0,22.0,50,0.00,,,0.00,VWS V14.01,2013-04-09 20:00:00,
2013-04-09 16:01:00,79.6,59.3,29.83,SSE,160,5.0,16.0,50,0.00,,,0.00,VWS V14.01,2013-04-09 20:01:00,
2013-04-09 16:07:00,79.7,59.4,29.83,SW,221,5.0,16.0,50,0.00,,,0.00,VWS V14.01,2013-04-09 20:07:00,
2013-04-09 16:13:00,79.7,59.4,29.83,South,181,3.0,3.0,50,0.00,,,0.00,VWS V14.01,2013-04-09 20:13:00,
2013-04-09 16:18:00,79.9,58.5,29.83,West,266,4.0,20.0,48,0.00,,,0.00,VWS V14.01,2013-04-09 20:18:00,
2013-04-09 16:23:00,80.6,58.5,29.83,SSW,194,10.0,20.0,47,0.00,,,0.00,VWS V14.01,2013-04-09 20:23:00,
2013-04-09 16:28:00,80.3,57.7,29.83,SSW,212,7.0,11.0,46,0.00,,,0.00,VWS V14.01,2013-04-09 20:28:00,
2013-04-09 16:30:00,80.5,57.8,29.83,WSW,239,7.0,20.0,46,0.00,,,0.00,VWS V14.01,2013-04-09 20:30:00,
2013-04-09 16:33:00,80.0,58.0,29.83,SSW,195,3.0,14.0,47,0.00,,,0.00,VWS V14.01,2013-04-09 20:33:00,
2013-04-09 16:38:00,79.6,57.6,29.83,SSW,195,22.0,22.0,47,0.00,,,0.00,VWS V14.01,2013-04-09 20:38:00,
2013-04-09 16:43:00,78.9,57.0,29.84,SSW,194,5.0,22.0,47,0.00,,,0.00,VWS V14.01,2013-04-09 20:43:00,
2013-04-09 16:52:00,78.5,57.2,29.84,South,169,3.0,3.0,48,0.00,,,0.00,VWS V14.01,2013-04-09 20:52:00,
2013-04-09 16:57:00,78.3,57.6,29.83,WSW,253,9.0,12.0,49,0.00,,,0.00,VWS V14.01,2013-04-09 20:57:00,
2013-04-09 17:00:00,78.3,57.6,29.83,South,186,5.0,12.0,49,0.00,,,0.00,VWS V14.01,2013-04-09 21:00:00,
2013-04-09 17:01:00,78.5,57.8,29.83,SSW,208,5.0,8.0,49,0.00,,,0.00,VWS V14.01,2013-04-09 21:01:00,
2013-04-09 17:10:00,78.3,57.6,29.83,South,185,5.0,5.0,49,0.00,,,0.00,VWS V14.01,2013-04-09 21:10:00,
2013-04-09 17:15:00,78.3,58.0,29.83,WSW,253,6.0,21.0,50,0.00,,,0.00,weatherlink.com 1.10,2013-04-09 21:15:00,
2013-04-09 17:20:00,78.2,57.5,29.83,South,183,4.0,10.0,49,0.00,,,0.00,VWS V14.01,2013-04-09 21:20:00,
2013-04-09 17:26:00,78.5,58.3,29.83,SW,231,4.0,5.0,50,0.00,,,0.00,VWS V14.01,2013-04-09 21:26:00,
2013-04-09 17:30:00,78.5,58.3,29.83,WSW,256,6.0,13.0,50,0.00,,,0.00,VWS V14.01,2013-04-09 21:30:00,
2013-04-09 17:31:00,78.4,57.7,29.83,West,281,11.0,16.0,49,0.00,,,0.00,VWS V14.01,2013-04-09 21:31:00,
2013-04-09 17:36:00,77.8,57.7,29.83,SW,228,4.0,16.0,50,0.00,,,0.00,VWS V14.01,2013-04-09 21:36:00,
2013-04-09 17:41:00,77.5,57.4,29.83,WSW,245,3.0,7.0,50,0.00,,,0.00,VWS V14.01,2013-04-09 21:41:00,
2013-04-09 17:46:00,77.4,57.9,29.83,SW,224,4.0,11.0,51,0.00,,,0.00,VWS V14.01,2013-04-09 21:46:00,
2013-04-09 17:53:00,77.3,58.3,29.83,WSW,242,4.0,4.0,52,0.00,,,0.00,VWS V14.01,2013-04-09 21:53:00,
2013-04-09 17:58:00,77.1,58.7,29.83,WSW,243,3.0,15.0,53,0.00,,,0.00,VWS V14.01,2013-04-09 21:58:00,
2013-04-09 18:00:00,77.2,58.8,29.83,SW,236,9.0,13.0,53,0.00,,,0.00,VWS V14.01,2013-04-09 22:00:00,
2013-04-09 18:03:00,76.8,58.9,29.83,WSW,256,5.0,15.0,54,0.00,,,0.00,VWS V14.01,2013-04-09 22:03:00,
2013-04-09 18:08:00,76.5,59.2,29.83,SSW,207,4.0,15.0,55,0.00,,,0.00,VWS V14.01,2013-04-09 22:08:00,
2013-04-09 18:13:00,76.4,59.1,29.83,WSW,245,4.0,15.0,55,0.00,,,0.00,VWS V14.01,2013-04-09 22:13:00,
2013-04-09 18:18:00,76.2,59.4,29.83,SW,236,5.0,15.0,56,0.00,,,0.00,VWS V14.01,2013-04-09 22:18:00,
2013-04-09 18:23:00,76.1,59.3,29.83,WSW,257,4.0,15.0,56,0.00,,,0.00,VWS V14.01,2013-04-09 22:23:00,
2013-04-09 18:30:00,76.0,59.2,29.84,SW,221,2.0,2.0,56,0.00,,,0.00,VWS V14.01,2013-04-09 22:30:00,
2013-04-09 18:35:00,75.8,59.5,29.83,West,280,5.0,8.0,57,0.00,,,0.00,VWS V14.01,2013-04-09 22:35:00,
2013-04-09 18:40:00,75.7,59.4,29.84,West,267,3.0,10.0,57,0.00,,,0.00,VWS V14.01,2013-04-09 22:40:00,
2013-04-09 18:49:00,75.5,59.2,29.84,WSW,255,3.0,3.0,57,0.00,,,0.00,VWS V14.01,2013-04-09 22:49:00,
2013-04-09 18:54:00,75.4,59.6,29.84,SW,218,6.0,6.0,58,0.00,,,0.00,VWS V14.01,2013-04-09 22:54:00,
2013-04-09 18:59:00,75.2,59.9,29.85,SSW,205,3.0,10.0,59,0.00,,,0.00,VWS V14.01,2013-04-09 22:59:00,
2013-04-09 19:00:00,75.3,60.0,29.84,WSW,253,4.0,6.0,59,0.00,,,0.00,VWS V14.01,2013-04-09 23:00:00,
2013-04-09 19:06:00,75.1,59.8,29.85,WSW,239,3.0,3.0,59,0.00,,,0.00,VWS V14.01,2013-04-09 23:06:00,
2013-04-09 19:11:00,74.9,59.6,29.85,WSW,252,5.0,8.0,59,0.00,,,0.00,VWS V14.01,2013-04-09 23:11:00,
2013-04-09 19:19:00,74.7,59.9,29.85,SW,228,5.0,5.0,60,0.00,,,0.00,VWS V14.01,2013-04-09 23:19:00,
2013-04-09 19:24:00,74.6,59.8,29.85,WNW,297,5.0,5.0,60,0.00,,,0.00,VWS V14.01,2013-04-09 23:24:00,
2013-04-09 19:30:00,74.5,60.2,29.85,NW,307,3.0,6.0,61,0.00,,,0.00,VWS V14.01,2013-04-09 23:30:00,
2013-04-09 19:32:00,74.4,60.1,29.85,SW,232,3.0,3.0,61,0.00,,,0.00,VWS V14.01,2013-04-09 23:32:00,
2013-04-09 19:37:00,74.3,60.5,29.85,WSW,242,3.0,8.0,62,0.00,,,0.00,VWS V14.01,2013-04-09 23:37:00,
2013-04-09 19:42:00,74.2,60.4,29.85,SSW,203,3.0,8.0,62,0.00,,,0.00,VWS V14.01,2013-04-09 23:42:00,
2013-04-09 19:47:00,74.1,60.3,29.85,SW,229,2.0,8.0,62,0.00,,,0.00,VWS V14.01,2013-04-09 23:47:00,
2013-04-09 19:54:00,74.0,60.2,29.85,SW,221,0.0,0.0,62,0.00,,,0.00,VWS V14.01,2013-04-09 23:54:00,
2013-04-09 20:00:00,73.8,60.4,29.85,SSW,209,4.0,4.0,63,0.00,,,0.00,VWS V14.01,2013-04-10 00:00:00,
2013-04-09 20:03:00,73.7,60.3,29.85,SW,223,3.0,3.0,63,0.00,,,0.00,VWS V14.01,2013-04-10 00:03:00,
2013-04-09 20:08:00,73.6,60.2,29.85,WSW,252,0.0,5.0,63,0.00,,,0.00,VWS V14.01,2013-04-10 00:08:00,
2013-04-09 20:15:00,73.5,60.2,29.85,SE,145,2.0,2.0,63,0.00,,,0.00,VWS V14.01,2013-04-10 00:15:00,
2013-04-09 20:20:00,73.4,60.5,29.85,South,170,2.0,2.0,64,0.00,,,0.00,VWS V14.01,2013-04-10 00:20:00,
2013-04-09 20:25:00,73.3,60.4,29.85,SW,224,1.0,3.0,64,0.00,,,0.00,VWS V14.01,2013-04-10 00:25:00,
2013-04-09 20:30:00,73.2,60.3,29.85,SW,236,1.0,1.0,64,0.00,,,0.00,VWS V14.01,2013-04-10 00:30:00,
2013-04-09 20:37:00,73.1,60.2,29.85,SW,221,1.0,1.0,64,0.00,,,0.00,VWS V14.01,2013-04-10 00:37:00,
2013-04-09 20:42:00,72.9,60.5,29.85,SW,233,1.0,2.0,65,0.00,,,0.00,VWS V14.01,2013-04-10 00:42:00,
2013-04-09 20:47:00,72.8,60.4,29.85,SSW,211,0.0,2.0,65,0.00,,,0.00,VWS V14.01,2013-04-10 00:47:00,
2013-04-09 20:52:00,72.7,60.3,29.85,SW,224,0.0,3.0,65,0.00,,,0.00,VWS V14.01,2013-04-10 00:52:00,
2013-04-09 20:59:00,72.6,60.2,29.85,SSW,210,0.0,0.0,65,0.00,,,0.00,VWS V14.01,2013-04-10 00:59:00,
2013-04-09 21:04:00,72.4,60.4,29.86,SW,232,0.0,1.0,66,0.00,,,0.00,VWS V14.01,2013-04-10 01:04:00,
2013-04-09 21:09:00,72.3,60.3,29.86,WSW,257,0.0,1.0,66,0.00,,,0.00,VWS V14.01,2013-04-10 01:09:00,
2013-04-09 21:25:00,72.2,60.0,29.86,WSW,257,0.0,1.0,66,0.00,,,0.00,weatherlink.com 1.10,2013-04-10 01:25:00,
2013-04-09 21:30:00,71.7,60.2,29.86,WSW,257,0.0,0.0,67,0.00,,,0.00,VWS V14.01,2013-04-10 01:30:00,
2013-04-09 21:35:00,71.6,60.1,29.86,SSW,204,0.0,1.0,67,0.00,,,0.00,VWS V14.01,2013-04-10 01:35:00,
2013-04-09 21:40:00,71.5,60.4,29.87,SSW,205,0.0,1.0,68,0.00,,,0.00,VWS V14.01,2013-04-10 01:40:00,
2013-04-09 21:45:00,71.4,60.3,29.87,SSW,204,0.0,0.0,68,0.00,,,0.00,VWS V14.01,2013-04-10 01:45:00,
2013-04-09 21:50:00,71.3,60.2,29.87,SW,224,0.0,1.0,68,0.00,,,0.00,VWS V14.01,2013-04-10 01:50:00,
2013-04-09 21:59:00,71.3,60.2,29.87,SW,229,0.0,0.0,68,0.00,,,0.00,VWS V14.01,2013-04-10 01:59:00,
2013-04-09 22:03:00,71.3,60.2,29.87,WSW,249,0.0,1.0,68,0.00,,,0.00,VWS V14.01,2013-04-10 02:03:00,
2013-04-09 22:09:00,71.2,60.1,29.87,SSW,210,0.0,2.0,68,0.00,,,0.00,VWS V14.01,2013-04-10 02:09:00,
2013-04-09 22:14:00,71.2,60.1,29.87,SW,226,0.0,2.0,68,0.00,,,0.00,VWS V14.01,2013-04-10 02:14:00,
2013-04-09 22:22:00,71.2,60.5,29.87,SW,215,0.0,0.0,69,0.00,,,0.00,VWS V14.01,2013-04-10 02:22:00,
2013-04-09 22:27:00,71.1,60.8,29.87,SSW,193,0.0,0.0,70,0.00,,,0.00,VWS V14.01,2013-04-10 02:27:00,
2013-04-09 22:30:00,71.1,60.8,29.87,SSW,193,0.0,0.0,70,0.00,,,0.00,VWS V14.01,2013-04-10 02:30:00,
2013-04-09 22:32:00,71.0,61.5,29.87,SSE,150,1.0,1.0,72,0.00,,,0.00,VWS V14.01,2013-04-10 02:32:00,
2013-04-09 22:37:00,70.5,61.0,29.87,SE,146,0.0,0.0,72,0.00,,,0.00,VWS V14.01,2013-04-10 02:37:00,
2013-04-09 22:42:00,70.2,61.2,29.86,SE,146,0.0,0.0,73,0.00,,,0.00,VWS V14.01,2013-04-10 02:42:00,
2013-04-09 22:47:00,69.9,61.2,29.86,SE,146,0.0,0.0,74,0.00,,,0.00,VWS V14.01,2013-04-10 02:47:00,
2013-04-09 22:52:00,69.7,61.0,29.86,SE,146,0.0,0.0,74,0.00,,,0.00,VWS V14.01,2013-04-10 02:52:00,
2013-04-09 22:57:00,69.4,60.8,29.86,SE,146,0.0,0.0,74,0.00,,,0.00,VWS V14.01,2013-04-10 02:57:00,
2013-04-09 23:00:00,69.4,60.8,29.86,SE,146,0.0,0.0,74,0.00,,,0.00,VWS V14.01,2013-04-10 03:00:00,
2013-04-09 23:02:00,69.4,61.1,29.86,SE,146,0.0,0.0,75,0.00,,,0.00,VWS V14.01,2013-04-10 03:02:00,
2013-04-09 23:07:00,69.4,60.8,29.86,SE,142,0.0,1.0,74,0.00,,,0.00,VWS V14.01,2013-04-10 03:07:00,
2013-04-09 23:12:00,69.4,61.1,29.86,SE,145,0.0,1.0,75,0.00,,,0.00,VWS V14.01,2013-04-10 03:12:00,
2013-04-09 23:18:00,69.4,60.8,29.85,SSE,150,0.0,0.0,74,0.00,,,0.00,VWS V14.01,2013-04-10 03:18:00,
2013-04-09 23:23:00,69.3,60.7,29.85,SE,145,0.0,0.0,74,0.00,,,0.00,VWS V14.01,2013-04-10 03:23:00,
2013-04-09 23:28:00,69.2,60.6,29.84,SE,136,1.0,2.0,74,0.00,,,0.00,VWS V14.01,2013-04-10 03:28:00,
2013-04-09 23:30:00,69.2,60.6,29.85,SSE,152,0.0,1.0,74,0.00,,,0.00,VWS V14.01,2013-04-10 03:30:00,
2013-04-09 23:35:00,69.1,60.5,29.84,SSW,201,0.0,0.0,74,0.00,,,0.00,VWS V14.01,2013-04-10 03:35:00,
2013-04-09 23:40:00,69.1,60.5,29.84,SSE,149,1.0,2.0,74,0.00,,,0.00,VWS V14.01,2013-04-10 03:40:00,
2013-04-09 23:45:00,69.1,60.5,29.84,South,191,0.0,3.0,74,0.00,,,0.00,VWS V14.01,2013-04-10 03:45:00,
2013-04-09 23:50:00,69.1,60.5,29.84,SW,226,1.0,3.0,74,0.00,,,0.00,VWS V14.01,2013-04-10 03:50:00,
2013-04-09 23:57:00,69.2,60.2,29.84,WSW,237,1.0,1.0,73,0.00,,,0.00,VWS V14.01,2013-04-10 03:57:00,